sensor_id;sensor_type;location;lat;lon;timestamp;temperature;humidity
22908;DHT22;11620;50.050;8.690;2024-02-14T00:02:04;5.10;99.90
22908;DHT22;11620;50.050;8.690;2024-02-14T00:04:53;5.00;99.90
22908;DHT22;11620;50.050;8.690;2024-02-14T00:07:39;4.90;99.90
22908;DHT22;11620;50.050;8.690;2024-02-14T00:10:25;4.70;99.90
22908;DHT22;11620;50.050;8.690;2024-02-14T00:13:12;4.70;99.90
22908;DHT22;11620;50.050;8.690;2024-02-14T00:15:59;4.60;99.90
22908;DHT22;11620;50.050;8.690;2024-02-14T00:18:45;4.50;99.90
22908;DHT22;11620;50.050;8.690;2024-02-14T00:21:31;4.40;99.90
22908;DHT22;11620;50.050;8.690;2024-02-14T00:24:18;4.50;99.90
22908;DHT22;11620;50.050;8.690;2024-02-14T00:27:05;4.50;99.90
22908;DHT22;11620;50.050;8.690;2024-02-14T00:29:52;4.40;99.90
22908;DHT22;11620;50.050;8.690;2024-02-14T00:32:40;4.40;99.90
22908;DHT22;11620;50.050;8.690;2024-02-14T00:35:26;4.40;99.90
22908;DHT22;11620;50.050;8.690;2024-02-14T00:38:12;4.30;99.90
22908;DHT22;11620;50.050;8.690;2024-02-14T00:40:59;4.30;99.90
22908;DHT22;11620;50.050;8.690;2024-02-14T00:43:45;4.20;99.90
22908;DHT22;11620;50.050;8.690;2024-02-14T00:46:31;4.30;99.90
22908;DHT22;11620;50.050;8.690;2024-02-14T00:49:17;4.20;99.90
22908;DHT22;11620;50.050;8.690;2024-02-14T00:52:04;4.30;99.90
22908;DHT22;11620;50.050;8.690;2024-02-14T00:54:50;4.30;99.90
22908;DHT22;11620;50.050;8.690;2024-02-14T00:57:37;4.30;99.90
22908;DHT22;11620;50.050;8.690;2024-02-14T01:00:23;4.30;99.90
22908;DHT22;11620;50.050;8.690;2024-02-14T01:03:09;4.30;99.90
22908;DHT22;11620;50.050;8.690;2024-02-14T01:05:58;4.30;99.90
22908;DHT22;11620;50.050;8.690;2024-02-14T01:08:45;4.40;99.90
22908;DHT22;11620;50.050;8.690;2024-02-14T01:11:31;4.40;99.90
22908;DHT22;11620;50.050;8.690;2024-02-14T01:14:17;4.40;99.90
22908;DHT22;11620;50.050;8.690;2024-02-14T01:17:04;4.50;99.90
22908;DHT22;11620;50.050;8.690;2024-02-14T01:19:51;4.50;99.90
22908;DHT22;11620;50.050;8.690;2024-02-14T01:22:37;4.50;99.90
22908;DHT22;11620;50.050;8.690;2024-02-14T01:25:23;4.50;99.90
22908;DHT22;11620;50.050;8.690;2024-02-14T01:28:10;4.40;99.90
22908;DHT22;11620;50.050;8.690;2024-02-14T01:30:56;4.50;99.90
22908;DHT22;11620;50.050;8.690;2024-02-14T01:33:43;4.50;99.90
22908;DHT22;11620;50.050;8.690;2024-02-14T01:36:30;4.50;99.90
22908;DHT22;11620;50.050;8.690;2024-02-14T01:39:16;4.50;99.90
22908;DHT22;11620;50.050;8.690;2024-02-14T01:42:04;4.50;99.90
22908;DHT22;11620;50.050;8.690;2024-02-14T01:44:55;4.40;99.90
22908;DHT22;11620;50.050;8.690;2024-02-14T01:47:42;4.40;99.90
22908;DHT22;11620;50.050;8.690;2024-02-14T01:50:28;4.40;99.90
22908;DHT22;11620;50.050;8.690;2024-02-14T01:53:15;4.40;99.90
22908;DHT22;11620;50.050;8.690;2024-02-14T01:56:02;4.50;99.90
22908;DHT22;11620;50.050;8.690;2024-02-14T01:58:51;4.40;99.90
22908;DHT22;11620;50.050;8.690;2024-02-14T02:01:38;4.50;99.90
22908;DHT22;11620;50.050;8.690;2024-02-14T02:04:25;4.50;99.90
22908;DHT22;11620;50.050;8.690;2024-02-14T02:07:12;4.50;99.90
22908;DHT22;11620;50.050;8.690;2024-02-14T02:09:58;4.60;99.90
22908;DHT22;11620;50.050;8.690;2024-02-14T02:12:44;4.60;99.90
22908;DHT22;11620;50.050;8.690;2024-02-14T02:15:31;4.60;99.90
22908;DHT22;11620;50.050;8.690;2024-02-14T02:18:17;4.60;99.90
22908;DHT22;11620;50.050;8.690;2024-02-14T02:21:04;4.70;99.90
22908;DHT22;11620;50.050;8.690;2024-02-14T02:23:53;4.70;99.90
22908;DHT22;11620;50.050;8.690;2024-02-14T02:26:39;4.80;99.90
22908;DHT22;11620;50.050;8.690;2024-02-14T02:29:25;4.70;99.90
22908;DHT22;11620;50.050;8.690;2024-02-14T02:32:11;4.80;99.90
22908;DHT22;11620;50.050;8.690;2024-02-14T02:34:58;4.80;99.90
22908;DHT22;11620;50.050;8.690;2024-02-14T02:37:45;4.80;99.90
22908;DHT22;11620;50.050;8.690;2024-02-14T02:40:32;4.70;99.90
22908;DHT22;11620;50.050;8.690;2024-02-14T02:43:18;4.80;99.90
22908;DHT22;11620;50.050;8.690;2024-02-14T02:46:04;4.70;99.90
22908;DHT22;11620;50.050;8.690;2024-02-14T02:48:51;4.80;99.90
22908;DHT22;11620;50.050;8.690;2024-02-14T02:51:38;4.80;99.90
22908;DHT22;11620;50.050;8.690;2024-02-14T02:54:24;4.80;99.90
22908;DHT22;11620;50.050;8.690;2024-02-14T02:57:10;4.70;99.90
22908;DHT22;11620;50.050;8.690;2024-02-14T02:59:57;4.70;99.90
22908;DHT22;11620;50.050;8.690;2024-02-14T03:02:44;4.80;99.90
22908;DHT22;11620;50.050;8.690;2024-02-14T03:05:30;4.80;99.90
22908;DHT22;11620;50.050;8.690;2024-02-14T03:08:22;4.90;99.90
22908;DHT22;11620;50.050;8.690;2024-02-14T03:11:11;5.00;99.90
22908;DHT22;11620;50.050;8.690;2024-02-14T03:13:57;4.90;99.90
22908;DHT22;11620;50.050;8.690;2024-02-14T03:16:44;5.00;99.90
22908;DHT22;11620;50.050;8.690;2024-02-14T03:19:30;4.90;99.90
22908;DHT22;11620;50.050;8.690;2024-02-14T03:22:17;5.00;99.90
22908;DHT22;11620;50.050;8.690;2024-02-14T03:25:04;4.90;99.90
22908;DHT22;11620;50.050;8.690;2024-02-14T03:27:51;4.90;99.90
22908;DHT22;11620;50.050;8.690;2024-02-14T03:30:39;4.80;99.90
22908;DHT22;11620;50.050;8.690;2024-02-14T03:33:25;4.80;99.90
22908;DHT22;11620;50.050;8.690;2024-02-14T03:36:11;4.90;99.90
22908;DHT22;11620;50.050;8.690;2024-02-14T03:38:59;4.90;99.90
22908;DHT22;11620;50.050;8.690;2024-02-14T03:41:47;5.00;99.90
22908;DHT22;11620;50.050;8.690;2024-02-14T03:44:33;4.80;99.90
22908;DHT22;11620;50.050;8.690;2024-02-14T03:47:20;4.90;99.90
22908;DHT22;11620;50.050;8.690;2024-02-14T03:50:07;4.80;99.90
22908;DHT22;11620;50.050;8.690;2024-02-14T03:52:53;4.90;99.90
22908;DHT22;11620;50.050;8.690;2024-02-14T03:55:41;4.90;99.90
22908;DHT22;11620;50.050;8.690;2024-02-14T03:58:27;4.90;99.90
22908;DHT22;11620;50.050;8.690;2024-02-14T04:01:15;4.90;99.90
22908;DHT22;11620;50.050;8.690;2024-02-14T04:04:01;4.90;99.90
22908;DHT22;11620;50.050;8.690;2024-02-14T04:06:48;4.90;99.90
22908;DHT22;11620;50.050;8.690;2024-02-14T04:09:35;5.00;99.90
22908;DHT22;11620;50.050;8.690;2024-02-14T04:12:21;4.90;99.90
22908;DHT22;11620;50.050;8.690;2024-02-14T04:15:11;4.90;99.90
22908;DHT22;11620;50.050;8.690;2024-02-14T04:18:00;4.90;99.90
22908;DHT22;11620;50.050;8.690;2024-02-14T04:20:48;5.00;99.90
22908;DHT22;11620;50.050;8.690;2024-02-14T04:23:36;5.00;99.90
22908;DHT22;11620;50.050;8.690;2024-02-14T04:26:22;5.10;99.90
22908;DHT22;11620;50.050;8.690;2024-02-14T04:29:08;5.20;99.90
22908;DHT22;11620;50.050;8.690;2024-02-14T04:31:55;5.20;99.90
22908;DHT22;11620;50.050;8.690;2024-02-14T04:34:41;5.10;99.90
22908;DHT22;11620;50.050;8.690;2024-02-14T04:37:29;5.10;99.90
22908;DHT22;11620;50.050;8.690;2024-02-14T04:40:15;5.10;99.90
22908;DHT22;11620;50.050;8.690;2024-02-14T04:43:02;5.20;99.90
22908;DHT22;11620;50.050;8.690;2024-02-14T04:45:48;5.20;99.90
22908;DHT22;11620;50.050;8.690;2024-02-14T04:48:35;5.20;99.90
22908;DHT22;11620;50.050;8.690;2024-02-14T04:51:22;5.20;99.90
22908;DHT22;11620;50.050;8.690;2024-02-14T04:54:09;5.30;99.90
22908;DHT22;11620;50.050;8.690;2024-02-14T04:56:56;5.20;99.90
22908;DHT22;11620;50.050;8.690;2024-02-14T04:59:42;5.20;99.90
22908;DHT22;11620;50.050;8.690;2024-02-14T05:02:28;5.20;99.90
22908;DHT22;11620;50.050;8.690;2024-02-14T05:05:15;5.20;99.90
22908;DHT22;11620;50.050;8.690;2024-02-14T05:08:01;5.30;99.90
22908;DHT22;11620;50.050;8.690;2024-02-14T05:10:48;5.20;99.90
22908;DHT22;11620;50.050;8.690;2024-02-14T05:13:35;5.20;99.90
22908;DHT22;11620;50.050;8.690;2024-02-14T05:16:22;5.20;99.90
22908;DHT22;11620;50.050;8.690;2024-02-14T05:19:09;5.20;99.90
22908;DHT22;11620;50.050;8.690;2024-02-14T05:21:56;5.20;99.90
22908;DHT22;11620;50.050;8.690;2024-02-14T05:24:42;5.20;99.90
22908;DHT22;11620;50.050;8.690;2024-02-14T05:27:28;5.20;99.90
22908;DHT22;11620;50.050;8.690;2024-02-14T05:30:15;5.20;99.90
22908;DHT22;11620;50.050;8.690;2024-02-14T05:33:01;5.10;99.90
22908;DHT22;11620;50.050;8.690;2024-02-14T05:35:49;5.20;99.90
22908;DHT22;11620;50.050;8.690;2024-02-14T05:38:35;5.10;99.90
22908;DHT22;11620;50.050;8.690;2024-02-14T05:41:21;5.20;99.90
22908;DHT22;11620;50.050;8.690;2024-02-14T05:44:09;5.10;99.90
22908;DHT22;11620;50.050;8.690;2024-02-14T05:46:56;5.20;99.90
22908;DHT22;11620;50.050;8.690;2024-02-14T05:49:42;5.10;99.90
22908;DHT22;11620;50.050;8.690;2024-02-14T05:52:28;5.10;99.90
22908;DHT22;11620;50.050;8.690;2024-02-14T05:55:15;5.10;99.90
22908;DHT22;11620;50.050;8.690;2024-02-14T05:58:01;5.10;99.90
22908;DHT22;11620;50.050;8.690;2024-02-14T06:00:47;5.10;99.90
22908;DHT22;11620;50.050;8.690;2024-02-14T06:03:34;5.20;99.90
22908;DHT22;11620;50.050;8.690;2024-02-14T06:06:20;5.30;99.90
22908;DHT22;11620;50.050;8.690;2024-02-14T06:09:07;5.20;99.90
22908;DHT22;11620;50.050;8.690;2024-02-14T06:11:56;5.20;99.90
22908;DHT22;11620;50.050;8.690;2024-02-14T06:14:42;5.20;99.90
22908;DHT22;11620;50.050;8.690;2024-02-14T06:17:29;5.20;99.90
22908;DHT22;11620;50.050;8.690;2024-02-14T06:20:15;5.30;99.90
22908;DHT22;11620;50.050;8.690;2024-02-14T06:23:01;5.30;99.90
22908;DHT22;11620;50.050;8.690;2024-02-14T06:25:48;5.30;99.90
22908;DHT22;11620;50.050;8.690;2024-02-14T06:28:34;5.30;99.90
22908;DHT22;11620;50.050;8.690;2024-02-14T06:31:21;5.40;99.90
22908;DHT22;11620;50.050;8.690;2024-02-14T06:34:08;5.40;99.90
22908;DHT22;11620;50.050;8.690;2024-02-14T06:36:54;5.40;99.90
22908;DHT22;11620;50.050;8.690;2024-02-14T06:39:41;5.30;99.90
22908;DHT22;11620;50.050;8.690;2024-02-14T06:42:27;5.30;99.90
22908;DHT22;11620;50.050;8.690;2024-02-14T06:45:13;5.30;99.90
22908;DHT22;11620;50.050;8.690;2024-02-14T06:48:00;5.30;99.90
22908;DHT22;11620;50.050;8.690;2024-02-14T06:50:49;5.40;99.90
22908;DHT22;11620;50.050;8.690;2024-02-14T06:53:36;5.30;99.90
22908;DHT22;11620;50.050;8.690;2024-02-14T06:56:22;5.30;99.90
22908;DHT22;11620;50.050;8.690;2024-02-14T06:59:08;5.30;99.90
22908;DHT22;11620;50.050;8.690;2024-02-14T07:01:55;5.30;99.90
22908;DHT22;11620;50.050;8.690;2024-02-14T07:04:41;5.30;99.90
22908;DHT22;11620;50.050;8.690;2024-02-14T07:07:27;5.20;99.90
22908;DHT22;11620;50.050;8.690;2024-02-14T07:10:14;5.20;99.90
22908;DHT22;11620;50.050;8.690;2024-02-14T07:13:00;5.30;99.90
22908;DHT22;11620;50.050;8.690;2024-02-14T07:15:46;5.30;99.90
22908;DHT22;11620;50.050;8.690;2024-02-14T07:18:34;5.20;99.90
22908;DHT22;11620;50.050;8.690;2024-02-14T07:21:20;5.30;99.90
22908;DHT22;11620;50.050;8.690;2024-02-14T07:24:06;5.40;99.90
22908;DHT22;11620;50.050;8.690;2024-02-14T07:26:53;5.40;99.90
22908;DHT22;11620;50.050;8.690;2024-02-14T07:29:39;5.40;99.90
22908;DHT22;11620;50.050;8.690;2024-02-14T07:32:25;5.50;99.90
22908;DHT22;11620;50.050;8.690;2024-02-14T07:35:13;5.60;99.90
22908;DHT22;11620;50.050;8.690;2024-02-14T07:38:00;5.70;99.90
22908;DHT22;11620;50.050;8.690;2024-02-14T07:40:46;5.70;99.90
22908;DHT22;11620;50.050;8.690;2024-02-14T07:43:32;5.70;99.90
22908;DHT22;11620;50.050;8.690;2024-02-14T07:46:19;5.70;99.90
22908;DHT22;11620;50.050;8.690;2024-02-14T07:49:06;5.70;99.90
22908;DHT22;11620;50.050;8.690;2024-02-14T07:51:52;5.70;99.90
22908;DHT22;11620;50.050;8.690;2024-02-14T07:54:38;5.70;99.90
22908;DHT22;11620;50.050;8.690;2024-02-14T07:57:25;5.80;99.90
22908;DHT22;11620;50.050;8.690;2024-02-14T08:00:12;5.90;99.90
22908;DHT22;11620;50.050;8.690;2024-02-14T08:03:00;5.80;99.90
22908;DHT22;11620;50.050;8.690;2024-02-14T08:05:49;5.90;99.90
22908;DHT22;11620;50.050;8.690;2024-02-14T08:08:37;5.90;99.90
22908;DHT22;11620;50.050;8.690;2024-02-14T08:11:23;6.00;99.90
22908;DHT22;11620;50.050;8.690;2024-02-14T08:14:09;6.00;99.90
22908;DHT22;11620;50.050;8.690;2024-02-14T08:16:57;6.00;99.90
22908;DHT22;11620;50.050;8.690;2024-02-14T08:19:44;6.10;99.90
22908;DHT22;11620;50.050;8.690;2024-02-14T08:22:30;6.10;99.90
22908;DHT22;11620;50.050;8.690;2024-02-14T08:25:17;6.10;99.90
22908;DHT22;11620;50.050;8.690;2024-02-14T08:28:03;6.10;99.90
22908;DHT22;11620;50.050;8.690;2024-02-14T08:30:50;6.00;99.90
22908;DHT22;11620;50.050;8.690;2024-02-14T08:33:36;6.00;99.90
22908;DHT22;11620;50.050;8.690;2024-02-14T08:36:22;6.10;99.90
22908;DHT22;11620;50.050;8.690;2024-02-14T08:39:09;6.10;99.90
22908;DHT22;11620;50.050;8.690;2024-02-14T08:41:56;6.10;99.90
22908;DHT22;11620;50.050;8.690;2024-02-14T08:44:42;6.20;99.90
22908;DHT22;11620;50.050;8.690;2024-02-14T08:47:28;6.10;99.90
22908;DHT22;11620;50.050;8.690;2024-02-14T08:50:18;6.30;99.90
22908;DHT22;11620;50.050;8.690;2024-02-14T08:53:04;6.20;99.90
22908;DHT22;11620;50.050;8.690;2024-02-14T08:55:50;6.40;99.90
22908;DHT22;11620;50.050;8.690;2024-02-14T08:58:38;6.40;99.90
22908;DHT22;11620;50.050;8.690;2024-02-14T09:01:24;6.50;99.90
22908;DHT22;11620;50.050;8.690;2024-02-14T09:04:12;6.30;99.90
22908;DHT22;11620;50.050;8.690;2024-02-14T09:06:58;6.40;99.90
22908;DHT22;11620;50.050;8.690;2024-02-14T09:09:44;6.40;99.90
22908;DHT22;11620;50.050;8.690;2024-02-14T09:12:32;6.40;99.90
22908;DHT22;11620;50.050;8.690;2024-02-14T09:15:19;6.50;99.90
22908;DHT22;11620;50.050;8.690;2024-02-14T09:18:06;6.50;99.90
22908;DHT22;11620;50.050;8.690;2024-02-14T09:20:52;6.40;99.90
22908;DHT22;11620;50.050;8.690;2024-02-14T09:23:39;6.30;99.90
22908;DHT22;11620;50.050;8.690;2024-02-14T09:26:26;6.40;99.90
22908;DHT22;11620;50.050;8.690;2024-02-14T09:29:12;6.40;99.90
22908;DHT22;11620;50.050;8.690;2024-02-14T09:32:00;6.40;99.90
22908;DHT22;11620;50.050;8.690;2024-02-14T09:34:47;6.50;99.90
22908;DHT22;11620;50.050;8.690;2024-02-14T09:37:33;6.50;99.90
22908;DHT22;11620;50.050;8.690;2024-02-14T09:40:19;6.50;99.90
22908;DHT22;11620;50.050;8.690;2024-02-14T09:43:55;6.50;99.90
22908;DHT22;11620;50.050;8.690;2024-02-14T09:46:16;6.40;99.90
22908;DHT22;11620;50.050;8.690;2024-02-14T09:49:03;6.50;99.90
22908;DHT22;11620;50.050;8.690;2024-02-14T09:51:52;6.50;99.90
22908;DHT22;11620;50.050;8.690;2024-02-14T09:54:39;6.60;99.90
22908;DHT22;11620;50.050;8.690;2024-02-14T09:57:26;6.70;99.90
22908;DHT22;11620;50.050;8.690;2024-02-14T10:00:13;6.60;99.90
22908;DHT22;11620;50.050;8.690;2024-02-14T10:03:02;6.70;99.90
22908;DHT22;11620;50.050;8.690;2024-02-14T10:05:49;6.80;99.90
22908;DHT22;11620;50.050;8.690;2024-02-14T10:08:35;6.90;99.90
22908;DHT22;11620;50.050;8.690;2024-02-14T10:11:21;6.80;99.90
22908;DHT22;11620;50.050;8.690;2024-02-14T10:14:09;6.90;99.90
22908;DHT22;11620;50.050;8.690;2024-02-14T10:16:58;6.70;99.90
22908;DHT22;11620;50.050;8.690;2024-02-14T10:19:55;6.70;99.90
22908;DHT22;11620;50.050;8.690;2024-02-14T10:22:45;6.70;99.90
22908;DHT22;11620;50.050;8.690;2024-02-14T10:25:34;6.90;99.90
22908;DHT22;11620;50.050;8.690;2024-02-14T10:28:21;6.90;99.90
22908;DHT22;11620;50.050;8.690;2024-02-14T10:31:07;7.00;99.90
22908;DHT22;11620;50.050;8.690;2024-02-14T10:33:56;7.00;99.90
22908;DHT22;11620;50.050;8.690;2024-02-14T10:36:43;7.10;99.90
22908;DHT22;11620;50.050;8.690;2024-02-14T10:39:31;7.00;99.90
22908;DHT22;11620;50.050;8.690;2024-02-14T10:42:19;6.90;99.90
22908;DHT22;11620;50.050;8.690;2024-02-14T10:45:05;7.00;99.90
22908;DHT22;11620;50.050;8.690;2024-02-14T10:47:53;7.10;99.90
22908;DHT22;11620;50.050;8.690;2024-02-14T10:50:43;7.30;99.90
22908;DHT22;11620;50.050;8.690;2024-02-14T10:53:32;7.30;99.90
22908;DHT22;11620;50.050;8.690;2024-02-14T10:56:20;7.60;99.90
22908;DHT22;11620;50.050;8.690;2024-02-14T10:59:08;7.70;99.90
22908;DHT22;11620;50.050;8.690;2024-02-14T11:01:56;7.80;99.90
22908;DHT22;11620;50.050;8.690;2024-02-14T11:04:43;7.80;99.90
22908;DHT22;11620;50.050;8.690;2024-02-14T11:07:30;7.90;99.90
22908;DHT22;11620;50.050;8.690;2024-02-14T11:10:17;8.40;99.90
22908;DHT22;11620;50.050;8.690;2024-02-14T11:13:10;8.40;99.90
22908;DHT22;11620;50.050;8.690;2024-02-14T11:16:02;8.60;99.90
22908;DHT22;11620;50.050;8.690;2024-02-14T11:18:50;9.00;99.90
22908;DHT22;11620;50.050;8.690;2024-02-14T11:21:44;8.90;99.90
22908;DHT22;11620;50.050;8.690;2024-02-14T11:24:31;8.80;99.90
22908;DHT22;11620;50.050;8.690;2024-02-14T11:27:22;8.50;99.90
22908;DHT22;11620;50.050;8.690;2024-02-14T11:30:11;8.50;99.90
22908;DHT22;11620;50.050;8.690;2024-02-14T11:36:07;8.90;99.90
22908;DHT22;11620;50.050;8.690;2024-02-14T11:38:55;8.80;99.90
22908;DHT22;11620;50.050;8.690;2024-02-14T11:41:41;9.00;99.90
22908;DHT22;11620;50.050;8.690;2024-02-14T11:44:28;9.20;99.90
22908;DHT22;11620;50.050;8.690;2024-02-14T11:47:15;9.00;99.90
22908;DHT22;11620;50.050;8.690;2024-02-14T11:50:01;8.90;99.90
22908;DHT22;11620;50.050;8.690;2024-02-14T11:52:49;8.80;99.90
22908;DHT22;11620;50.050;8.690;2024-02-14T11:55:36;8.80;99.90
22908;DHT22;11620;50.050;8.690;2024-02-14T11:58:23;8.70;99.90
22908;DHT22;11620;50.050;8.690;2024-02-14T12:01:09;8.70;99.90
22908;DHT22;11620;50.050;8.690;2024-02-14T12:03:59;8.80;99.90
22908;DHT22;11620;50.050;8.690;2024-02-14T12:06:46;9.00;99.90
22908;DHT22;11620;50.050;8.690;2024-02-14T12:09:33;9.10;99.90
22908;DHT22;11620;50.050;8.690;2024-02-14T12:12:20;8.80;99.90
22908;DHT22;11620;50.050;8.690;2024-02-14T12:15:09;8.90;99.90
22908;DHT22;11620;50.050;8.690;2024-02-14T12:17:56;9.10;99.90
22908;DHT22;11620;50.050;8.690;2024-02-14T12:20:43;8.90;99.90
22908;DHT22;11620;50.050;8.690;2024-02-14T12:23:30;8.80;99.90
22908;DHT22;11620;50.050;8.690;2024-02-14T12:26:16;8.80;99.90
22908;DHT22;11620;50.050;8.690;2024-02-14T12:29:07;8.70;99.90
22908;DHT22;11620;50.050;8.690;2024-02-14T12:32:06;8.80;99.90
22908;DHT22;11620;50.050;8.690;2024-02-14T12:34:55;8.80;99.90
22908;DHT22;11620;50.050;8.690;2024-02-14T12:37:42;8.70;99.90
22908;DHT22;11620;50.050;8.690;2024-02-14T12:40:29;8.80;99.90
22908;DHT22;11620;50.050;8.690;2024-02-14T12:43:15;8.90;99.90
22908;DHT22;11620;50.050;8.690;2024-02-14T12:46:02;8.90;99.90
22908;DHT22;11620;50.050;8.690;2024-02-14T12:48:50;8.80;99.90
22908;DHT22;11620;50.050;8.690;2024-02-14T12:51:37;8.80;99.90
22908;DHT22;11620;50.050;8.690;2024-02-14T12:54:24;8.70;99.90
22908;DHT22;11620;50.050;8.690;2024-02-14T12:57:10;8.60;99.90
22908;DHT22;11620;50.050;8.690;2024-02-14T12:59:57;8.80;99.90
22908;DHT22;11620;50.050;8.690;2024-02-14T13:02:44;8.80;99.90
22908;DHT22;11620;50.050;8.690;2024-02-14T13:05:30;8.80;99.90
22908;DHT22;11620;50.050;8.690;2024-02-14T13:08:16;8.70;99.90
22908;DHT22;11620;50.050;8.690;2024-02-14T13:11:03;8.80;99.90
22908;DHT22;11620;50.050;8.690;2024-02-14T13:13:49;8.80;99.90
22908;DHT22;11620;50.050;8.690;2024-02-14T13:16:35;8.70;99.90
22908;DHT22;11620;50.050;8.690;2024-02-14T13:19:22;8.80;99.90
22908;DHT22;11620;50.050;8.690;2024-02-14T13:22:09;9.00;99.90
22908;DHT22;11620;50.050;8.690;2024-02-14T13:24:55;9.10;99.90
22908;DHT22;11620;50.050;8.690;2024-02-14T13:27:43;9.00;99.90
22908;DHT22;11620;50.050;8.690;2024-02-14T13:30:30;8.90;99.90
22908;DHT22;11620;50.050;8.690;2024-02-14T13:33:17;8.80;99.90
22908;DHT22;11620;50.050;8.690;2024-02-14T13:36:03;8.70;99.90
22908;DHT22;11620;50.050;8.690;2024-02-14T13:38:49;8.70;99.90
22908;DHT22;11620;50.050;8.690;2024-02-14T13:41:36;8.80;99.90
22908;DHT22;11620;50.050;8.690;2024-02-14T13:44:24;8.80;99.90
22908;DHT22;11620;50.050;8.690;2024-02-14T13:47:11;8.80;99.90
22908;DHT22;11620;50.050;8.690;2024-02-14T13:49:57;8.90;99.90
22908;DHT22;11620;50.050;8.690;2024-02-14T13:52:43;9.00;99.90
22908;DHT22;11620;50.050;8.690;2024-02-14T13:55:30;8.90;99.90
22908;DHT22;11620;50.050;8.690;2024-02-14T13:58:17;8.80;99.90
22908;DHT22;11620;50.050;8.690;2024-02-14T14:01:04;8.80;99.90
22908;DHT22;11620;50.050;8.690;2024-02-14T14:03:53;8.90;99.90
22908;DHT22;11620;50.050;8.690;2024-02-14T14:06:41;8.80;99.90
22908;DHT22;11620;50.050;8.690;2024-02-14T14:09:28;8.90;99.90
22908;DHT22;11620;50.050;8.690;2024-02-14T14:12:16;8.90;99.90
22908;DHT22;11620;50.050;8.690;2024-02-14T14:15:03;8.70;99.90
22908;DHT22;11620;50.050;8.690;2024-02-14T14:17:50;8.60;99.90
22908;DHT22;11620;50.050;8.690;2024-02-14T14:20:36;8.60;99.90
22908;DHT22;11620;50.050;8.690;2024-02-14T14:23:23;8.40;99.90
22908;DHT22;11620;50.050;8.690;2024-02-14T14:26:10;8.60;99.90
22908;DHT22;11620;50.050;8.690;2024-02-14T14:28:56;8.70;99.90
22908;DHT22;11620;50.050;8.690;2024-02-14T14:31:43;8.70;99.90
22908;DHT22;11620;50.050;8.690;2024-02-14T14:34:29;8.70;99.90
22908;DHT22;11620;50.050;8.690;2024-02-14T14:37:18;8.80;99.90
22908;DHT22;11620;50.050;8.690;2024-02-14T14:40:05;8.80;99.90
22908;DHT22;11620;50.050;8.690;2024-02-14T14:42:51;8.70;99.90
22908;DHT22;11620;50.050;8.690;2024-02-14T14:45:38;8.50;99.90
22908;DHT22;11620;50.050;8.690;2024-02-14T14:48:25;8.70;99.90
22908;DHT22;11620;50.050;8.690;2024-02-14T14:51:12;8.60;99.90
22908;DHT22;11620;50.050;8.690;2024-02-14T14:53:58;8.60;99.90
22908;DHT22;11620;50.050;8.690;2024-02-14T14:56:45;8.40;99.90
22908;DHT22;11620;50.050;8.690;2024-02-14T14:59:32;8.50;99.90
22908;DHT22;11620;50.050;8.690;2024-02-14T15:02:21;8.40;99.90
22908;DHT22;11620;50.050;8.690;2024-02-14T15:05:09;8.30;99.90
22908;DHT22;11620;50.050;8.690;2024-02-14T15:07:56;8.10;99.90
22908;DHT22;11620;50.050;8.690;2024-02-14T15:10:43;8.10;99.90
22908;DHT22;11620;50.050;8.690;2024-02-14T15:13:30;8.20;99.90
22908;DHT22;11620;50.050;8.690;2024-02-14T15:16:17;8.20;99.90
22908;DHT22;11620;50.050;8.690;2024-02-14T15:19:04;8.10;99.90
22908;DHT22;11620;50.050;8.690;2024-02-14T15:21:50;8.20;99.90
22908;DHT22;11620;50.050;8.690;2024-02-14T15:24:37;8.10;99.90
22908;DHT22;11620;50.050;8.690;2024-02-14T15:27:26;8.20;99.90
22908;DHT22;11620;50.050;8.690;2024-02-14T15:30:15;8.20;99.90
22908;DHT22;11620;50.050;8.690;2024-02-14T15:33:20;8.40;99.90
22908;DHT22;11620;50.050;8.690;2024-02-14T15:36:10;8.30;99.90
22908;DHT22;11620;50.050;8.690;2024-02-14T15:38:59;8.30;99.90
22908;DHT22;11620;50.050;8.690;2024-02-14T15:41:46;8.20;99.90
22908;DHT22;11620;50.050;8.690;2024-02-14T15:44:32;8.10;99.90
22908;DHT22;11620;50.050;8.690;2024-02-14T15:47:18;8.20;99.90
22908;DHT22;11620;50.050;8.690;2024-02-14T15:50:06;8.30;99.90
22908;DHT22;11620;50.050;8.690;2024-02-14T15:52:53;8.30;99.90
22908;DHT22;11620;50.050;8.690;2024-02-14T15:55:40;8.40;99.90
22908;DHT22;11620;50.050;8.690;2024-02-14T15:58:27;8.30;99.90
22908;DHT22;11620;50.050;8.690;2024-02-14T16:01:13;8.30;99.90
22908;DHT22;11620;50.050;8.690;2024-02-14T16:04:02;8.30;99.90
22908;DHT22;11620;50.050;8.690;2024-02-14T16:06:50;8.30;99.90
22908;DHT22;11620;50.050;8.690;2024-02-14T16:09:37;8.30;99.90
22908;DHT22;11620;50.050;8.690;2024-02-14T16:12:23;8.40;99.90
22908;DHT22;11620;50.050;8.690;2024-02-14T16:15:10;8.30;99.90
22908;DHT22;11620;50.050;8.690;2024-02-14T16:17:56;8.30;99.90
22908;DHT22;11620;50.050;8.690;2024-02-14T16:20:43;8.20;99.90
22908;DHT22;11620;50.050;8.690;2024-02-14T16:23:29;8.30;99.90
22908;DHT22;11620;50.050;8.690;2024-02-14T16:26:15;8.20;99.90
22908;DHT22;11620;50.050;8.690;2024-02-14T16:29:02;8.20;99.90
22908;DHT22;11620;50.050;8.690;2024-02-14T16:31:48;8.10;99.90
22908;DHT22;11620;50.050;8.690;2024-02-14T16:34:34;8.10;99.90
22908;DHT22;11620;50.050;8.690;2024-02-14T16:37:21;8.20;99.90
22908;DHT22;11620;50.050;8.690;2024-02-14T16:40:07;8.20;99.90
22908;DHT22;11620;50.050;8.690;2024-02-14T16:42:54;8.20;99.90
22908;DHT22;11620;50.050;8.690;2024-02-14T16:45:41;8.20;99.90
22908;DHT22;11620;50.050;8.690;2024-02-14T16:48:27;8.20;99.90
22908;DHT22;11620;50.050;8.690;2024-02-14T16:51:14;8.20;99.90
22908;DHT22;11620;50.050;8.690;2024-02-14T16:54:02;8.10;99.90
22908;DHT22;11620;50.050;8.690;2024-02-14T16:56:49;8.10;99.90
22908;DHT22;11620;50.050;8.690;2024-02-14T16:59:39;8.20;99.90
22908;DHT22;11620;50.050;8.690;2024-02-14T17:02:26;8.10;99.90
22908;DHT22;11620;50.050;8.690;2024-02-14T17:05:12;8.10;99.90
22908;DHT22;11620;50.050;8.690;2024-02-14T17:07:59;8.00;99.90
22908;DHT22;11620;50.050;8.690;2024-02-14T17:10:45;8.10;99.90
22908;DHT22;11620;50.050;8.690;2024-02-14T17:13:31;8.00;99.90
22908;DHT22;11620;50.050;8.690;2024-02-14T17:16:18;8.00;99.90
22908;DHT22;11620;50.050;8.690;2024-02-14T17:19:05;8.10;99.90
22908;DHT22;11620;50.050;8.690;2024-02-14T17:21:53;8.10;99.90
22908;DHT22;11620;50.050;8.690;2024-02-14T17:24:40;8.10;99.90
22908;DHT22;11620;50.050;8.690;2024-02-14T17:27:29;8.20;99.90
22908;DHT22;11620;50.050;8.690;2024-02-14T17:30:16;8.20;99.90
22908;DHT22;11620;50.050;8.690;2024-02-14T17:33:05;8.10;99.90
22908;DHT22;11620;50.050;8.690;2024-02-14T17:35:52;8.10;99.90
22908;DHT22;11620;50.050;8.690;2024-02-14T17:38:38;8.10;99.90
22908;DHT22;11620;50.050;8.690;2024-02-14T17:41:25;8.10;99.90
22908;DHT22;11620;50.050;8.690;2024-02-14T17:44:11;8.30;99.90
22908;DHT22;11620;50.050;8.690;2024-02-14T17:46:58;8.30;99.90
22908;DHT22;11620;50.050;8.690;2024-02-14T17:49:45;8.20;99.90
22908;DHT22;11620;50.050;8.690;2024-02-14T17:52:32;8.20;99.90
22908;DHT22;11620;50.050;8.690;2024-02-14T17:55:21;8.20;99.90